Center Point, West Virginia
Current Conditions -  °F | °C
As of 5:53 AM on Friday 19 Dec 2014 (Local Time) from KCKB Reporting Station
Overcast Overcast  
Wind Chill: 19°   Ceiling: 1800
Heat Index: 27°   Visibility: 10mi
Dew Point: 21°   Wind: 7mph
Humidity: 78%   Direction: 260°W
Pressure: 30.19"   Gusts: NA
Location:  39.39°N, 80.64°W
Report Text: KCKB 191053Z AUTO 26006KT 10SM OVC018 M03/M06 A3019 RMK AO2 SLP231 T10281061 TSNO
Loading
Personal Weather Stations






























Interactive Weather Map New forecast layout! Learn more

10-Day Weather Forecast

Advertisements
Track Severe Weather on mobile